Time;durP1;ratioP1;P1;durP2;ratioP2;P2;SDS_P1;SDS_P2;PMS_P1;PMS_P2;Temp;Humidity;BMP_temperature;BMP_pressure;BME280_temperature;BME280_humidity;BME280_pressure;Samples;Min_cycle;Max_cycle;Signal;HPM_P1;HPM_P2
2023/09/09 00:01:14;;;;;;;16.57;11.70;;;17.80;99.90;;;;;;4993737;28;20198;-85
2023/09/09 00:03:39;;;;;;;17.00;12.43;;;17.70;99.90;;;;;;4993360;28;20217;-79
2023/09/09 00:06:12;;;;;;;15.47;12.00;;;17.70;99.90;;;;;;5005632;28;20300;-84
2023/09/09 00:08:38;;;;;;;15.53;11.90;;;17.70;99.90;;;;;;4995764;28;20262;-81
2023/09/09 00:11:05;;;;;;;12.60;11.27;;;17.60;99.90;;;;;;5003993;28;20449;-81
2023/09/09 00:13:30;;;;;;;18.83;15.20;;;17.50;99.90;;;;;;5003499;28;20491;-79
2023/09/09 00:15:57;;;;;;;15.57;13.20;;;17.40;99.90;;;;;;4996174;28;20457;-84
2023/09/09 00:18:22;;;;;;;19.43;15.37;;;17.40;99.90;;;;;;5001155;28;20196;-79
2023/09/09 00:20:48;;;;;;;14.80;13.13;;;17.40;99.90;;;;;;4996367;28;20480;-82
2023/09/09 00:23:13;;;;;;;16.27;13.23;;;17.40;99.90;;;;;;4997168;28;20213;-81
2023/09/09 00:25:41;;;;;;;14.90;12.57;;;17.40;99.90;;;;;;4993975;28;20218;-85
2023/09/09 00:28:11;;;;;;;15.33;12.63;;;17.30;99.90;;;;;;4998946;28;20195;-85
2023/09/09 00:30:37;;;;;;;18.17;12.50;;;17.30;99.90;;;;;;4995391;28;20437;-87
2023/09/09 00:33:03;;;;;;;17.90;13.87;;;17.30;99.90;;;;;;4996239;28;20448;-84
2023/09/09 00:35:32;;;;;;;16.63;13.23;;;17.30;99.90;;;;;;5022854;28;20488;-84
2023/09/09 00:37:57;;;;;;;18.03;14.40;;;17.10;99.90;;;;;;4997921;28;20461;-82
2023/09/09 00:40:22;;;;;;;18.40;14.90;;;17.10;99.90;;;;;;4995768;28;20449;-84
2023/09/09 00:42:48;;;;;;;21.90;13.30;;;17.10;99.90;;;;;;5004719;28;20225;-85
2023/09/09 00:45:14;;;;;;;18.67;12.77;;;17.10;99.90;;;;;;4998343;28;20356;-83
2023/09/09 00:47:39;;;;;;;16.67;13.83;;;17.10;99.90;;;;;;4999971;28;20194;-83
2023/09/09 00:50:10;;;;;;;17.00;14.63;;;17.00;99.90;;;;;;5015544;28;20212;-86
2023/09/09 00:52:39;;;;;;;22.77;18.00;;;17.00;99.90;;;;;;4998072;28;20530;-83
2023/09/09 00:55:07;;;;;;;19.93;13.77;;;17.00;99.90;;;;;;4993184;28;20457;-84
2023/09/09 00:57:33;;;;;;;22.23;14.90;;;17.00;99.90;;;;;;4998980;28;20477;-84
2023/09/09 01:00:00;;;;;;;15.60;12.80;;;17.00;99.90;;;;;;4998522;28;20499;-83
2023/09/09 01:02:26;;;;;;;21.50;15.30;;;17.10;99.90;;;;;;4997884;28;20536;-82
2023/09/09 01:04:52;;;;;;;23.37;16.10;;;17.00;99.90;;;;;;4996178;28;20465;-82
2023/09/09 01:07:18;;;;;;;22.47;16.07;;;17.00;99.90;;;;;;5000616;28;20442;-83
2023/09/09 01:09:43;;;;;;;19.93;15.20;;;16.90;99.90;;;;;;5004443;28;20463;-84
2023/09/09 01:12:11;;;;;;;26.73;16.80;;;16.70;99.90;;;;;;4997559;28;20186;-87
2023/09/09 01:14:40;;;;;;;20.70;14.90;;;16.70;99.90;;;;;;5004321;28;20233;-87
2023/09/09 01:17:07;;;;;;;23.17;15.63;;;16.70;99.90;;;;;;5000718;28;20487;-83
2023/09/09 01:19:33;;;;;;;18.47;14.27;;;16.70;99.90;;;;;;5001378;28;20445;-83
2023/09/09 01:22:03;;;;;;;18.97;14.87;;;16.70;99.90;;;;;;5009201;28;20452;-83
2023/09/09 01:24:28;;;;;;;20.53;15.30;;;16.70;99.90;;;;;;5005653;28;20222;-83
2023/09/09 01:26:54;;;;;;;19.50;14.63;;;16.70;99.90;;;;;;5001676;28;20468;-84
2023/09/09 01:29:19;;;;;;;20.17;15.00;;;16.70;99.90;;;;;;5016027;28;20216;-85
2023/09/09 01:31:45;;;;;;;20.33;17.70;;;16.60;99.90;;;;;;4999679;28;20201;-85
2023/09/09 01:34:10;;;;;;;19.67;14.47;;;16.60;99.90;;;;;;4997408;28;20210;-83
2023/09/09 01:36:36;;;;;;;20.97;16.27;;;16.50;99.90;;;;;;4994459;28;20194;-84
2023/09/09 01:39:02;;;;;;;29.87;17.63;;;16.60;99.90;;;;;;4997972;28;20209;-84
2023/09/09 01:41:28;;;;;;;37.93;22.13;;;16.60;99.90;;;;;;4998177;28;20650;-85
2023/09/09 01:43:53;;;;;;;25.70;20.50;;;16.50;99.90;;;;;;4999300;28;20478;-85
2023/09/09 01:46:19;;;;;;;33.27;20.90;;;16.40;99.90;;;;;;5001330;28;20214;-85
2023/09/09 01:48:44;;;;;;;25.27;17.50;;;16.30;99.90;;;;;;5000408;28;20570;-87
2023/09/09 01:51:10;;;;;;;19.37;16.10;;;16.30;99.90;;;;;;4999550;28;20197;-85
2023/09/09 01:53:36;;;;;;;27.10;19.70;;;16.30;99.90;;;;;;4992776;28;20203;-81
2023/09/09 01:56:01;;;;;;;33.17;21.70;;;16.30;99.90;;;;;;5009188;28;20296;-85
2023/09/09 01:58:27;;;;;;;27.90;21.07;;;16.30;99.90;;;;;;4997249;28;20235;-83
2023/09/09 02:00:53;;;;;;;31.40;21.87;;;16.30;99.90;;;;;;4996907;28;20191;-85
2023/09/09 02:03:18;;;;;;;27.00;20.60;;;16.30;99.90;;;;;;4991621;28;20203;-85
2023/09/09 02:05:45;;;;;;;25.27;18.77;;;16.20;99.90;;;;;;4995816;28;20205;-83
2023/09/09 02:08:11;;;;;;;21.10;15.17;;;16.30;99.90;;;;;;5002636;28;20445;-83
2023/09/09 02:10:36;;;;;;;22.87;16.93;;;16.30;99.90;;;;;;4989109;28;20451;-82
2023/09/09 02:13:02;;;;;;;24.60;18.57;;;16.30;99.90;;;;;;4993655;28;21474;-85
2023/09/09 02:15:27;;;;;;;22.07;17.40;;;16.30;99.90;;;;;;4998920;28;20756;-85
2023/09/09 02:17:53;;;;;;;24.97;19.20;;;16.20;99.90;;;;;;4998012;28;21184;-83
2023/09/09 02:20:18;;;;;;;24.80;16.03;;;16.30;99.90;;;;;;5010318;28;20195;-84
2023/09/09 02:22:44;;;;;;;19.77;15.00;;;16.20;99.90;;;;;;4993393;28;20186;-82
2023/09/09 02:25:09;;;;;;;17.57;14.30;;;16.30;99.90;;;;;;4996337;28;20219;-83
2023/09/09 02:27:35;;;;;;;17.20;14.50;;;16.20;99.90;;;;;;4992658;28;20190;-84
2023/09/09 02:30:01;;;;;;;22.10;17.97;;;16.20;99.90;;;;;;5001204;28;21549;-85
2023/09/09 02:32:27;;;;;;;23.57;18.60;;;16.20;99.90;;;;;;4994777;28;20457;-84
2023/09/09 02:34:53;;;;;;;21.87;18.10;;;16.20;99.90;;;;;;4996193;28;20326;-83
2023/09/09 02:37:20;;;;;;;29.03;17.73;;;16.20;99.90;;;;;;4993705;28;20473;-82
2023/09/09 02:39:46;;;;;;;21.10;16.50;;;16.20;99.90;;;;;;4989229;28;20226;-86
2023/09/09 02:42:22;;;;;;;21.33;16.00;;;16.10;99.90;;;;;;4992238;28;20449;-82
2023/09/09 02:44:49;;;;;;;24.67;17.40;;;16.10;99.90;;;;;;5011699;28;20474;-82
2023/09/09 02:47:15;;;;;;;21.57;17.37;;;16.10;99.90;;;;;;4995194;28;20444;-85
2023/09/09 02:49:42;;;;;;;24.37;18.47;;;16.00;99.90;;;;;;4996020;28;20469;-83
2023/09/09 02:52:08;;;;;;;27.00;18.30;;;16.00;99.90;;;;;;4995842;28;20476;-84
2023/09/09 02:54:34;;;;;;;24.63;19.30;;;16.00;99.90;;;;;;4996188;28;20565;-82
2023/09/09 02:57:00;;;;;;;24.23;17.17;;;16.00;99.90;;;;;;4996970;28;20448;-84
2023/09/09 02:59:26;;;;;;;22.93;18.40;;;16.00;99.90;;;;;;5004034;28;20425;-83
2023/09/09 03:01:51;;;;;;;22.70;18.03;;;16.00;99.90;;;;;;5001310;28;21467;-87
2023/09/09 03:04:18;;;;;;;25.43;19.03;;;16.00;99.90;;;;;;4993251;28;20211;-84
2023/09/09 03:06:45;;;;;;;23.20;17.90;;;16.00;99.90;;;;;;4995214;28;20209;-84
2023/09/09 03:09:11;;;;;;;26.77;21.13;;;16.00;99.90;;;;;;4998520;28;20488;-85
2023/09/09 03:11:36;;;;;;;29.73;21.13;;;16.00;99.90;;;;;;4994390;28;20513;-86
2023/09/09 03:14:02;;;;;;;32.93;22.30;;;16.00;99.90;;;;;;4996110;28;20648;-86
2023/09/09 03:16:27;;;;;;;32.07;20.87;;;15.90;99.90;;;;;;4996083;28;20209;-84
2023/09/09 03:18:53;;;;;;;29.07;20.93;;;15.90;99.90;;;;;;4990758;28;20275;-85
2023/09/09 03:21:19;;;;;;;33.83;23.87;;;15.90;99.90;;;;;;4996000;28;20182;-86
2023/09/09 03:23:45;;;;;;;33.50;22.30;;;15.80;99.90;;;;;;4991825;28;20224;-86
2023/09/09 03:26:18;;;;;;;30.23;20.30;;;15.80;99.90;;;;;;4989452;28;20452;-83
2023/09/09 03:28:46;;;;;;;25.30;18.00;;;15.80;99.90;;;;;;4991288;28;20454;-84
2023/09/09 03:31:12;;;;;;;27.50;20.83;;;15.80;99.90;;;;;;4991161;28;20452;-85
2023/09/09 03:33:39;;;;;;;25.13;18.07;;;15.70;99.90;;;;;;4991325;28;20708;-82
2023/09/09 03:36:05;;;;;;;22.97;18.43;;;15.70;99.90;;;;;;4996711;28;20241;-86
2023/09/09 03:38:30;;;;;;;24.90;19.37;;;15.70;99.90;;;;;;4994570;28;22278;-85
2023/09/09 03:40:56;;;;;;;25.67;18.90;;;15.60;99.90;;;;;;5011575;28;20441;-81
2023/09/09 03:43:21;;;;;;;21.73;17.60;;;15.70;99.90;;;;;;5006295;28;20202;-82
2023/09/09 03:45:52;;;;;;;28.70;18.70;;;15.60;99.90;;;;;;4998983;28;20218;-85
2023/09/09 03:48:18;;;;;;;33.63;20.97;;;15.60;99.90;;;;;;4997868;28;20212;-85
2023/09/09 03:50:43;;;;;;;31.70;20.07;;;15.60;99.90;;;;;;4994262;28;20950;-86
2023/09/09 03:53:09;;;;;;;26.80;18.07;;;15.60;99.90;;;;;;4995249;28;20209;-83
2023/09/09 03:55:34;;;;;;;24.90;19.47;;;15.60;99.90;;;;;;5000689;28;20233;-86
2023/09/09 03:58:00;;;;;;;25.53;18.33;;;15.50;99.90;;;;;;5002185;28;20599;-85
2023/09/09 04:00:25;;;;;;;24.97;20.30;;;15.60;99.90;;;;;;4990941;28;20221;-84
2023/09/09 04:02:51;;;;;;;34.70;23.10;;;15.50;99.90;;;;;;5013533;28;20238;-83
2023/09/09 04:05:16;;;;;;;28.07;20.50;;;15.50;99.90;;;;;;5009331;28;20213;-81
2023/09/09 04:07:44;;;;;;;29.87;21.20;;;15.50;99.90;;;;;;4997316;28;20281;-82
2023/09/09 04:10:10;;;;;;;33.87;22.90;;;15.50;99.90;;;;;;4991885;28;20186;-84
2023/09/09 04:12:36;;;;;;;29.40;20.80;;;15.50;99.90;;;;;;4991959;28;20437;-84
2023/09/09 04:15:01;;;;;;;31.70;19.80;;;15.50;99.90;;;;;;4997546;28;20542;-82
2023/09/09 04:17:27;;;;;;;29.87;20.70;;;15.40;99.90;;;;;;4992084;28;20245;-85
2023/09/09 04:19:52;;;;;;;24.90;18.77;;;15.40;99.90;;;;;;4994404;28;20658;-83
2023/09/09 04:22:18;;;;;;;30.13;19.90;;;15.40;99.90;;;;;;4991208;28;20197;-83
2023/09/09 04:24:43;;;;;;;34.07;23.07;;;15.30;99.90;;;;;;4988876;28;20249;-83
2023/09/09 04:27:09;;;;;;;26.40;19.73;;;15.20;99.90;;;;;;4996941;28;20195;-85
2023/09/09 04:29:34;;;;;;;33.93;23.23;;;15.10;99.90;;;;;;5018802;28;20182;-82
2023/09/09 04:32:00;;;;;;;29.40;21.47;;;15.10;99.90;;;;;;5002566;28;20194;-84
2023/09/09 04:34:25;;;;;;;31.00;22.73;;;15.10;99.90;;;;;;4992303;28;20745;-84
2023/09/09 04:36:51;;;;;;;29.17;21.30;;;15.10;99.90;;;;;;4995757;28;20277;-85
2023/09/09 04:39:17;;;;;;;27.60;21.10;;;15.10;99.90;;;;;;4992891;28;20194;-85
2023/09/09 04:41:43;;;;;;;26.97;20.87;;;15.10;99.90;;;;;;4994395;28;20449;-86
2023/09/09 04:44:09;;;;;;;32.10;22.83;;;15.10;99.90;;;;;;5003581;28;20240;-84
2023/09/09 04:46:35;;;;;;;26.17;19.90;;;15.10;99.90;;;;;;4994554;28;20294;-85
2023/09/09 04:49:01;;;;;;;29.47;19.17;;;15.10;99.90;;;;;;4994350;28;20463;-84
2023/09/09 04:51:26;;;;;;;31.00;22.47;;;15.00;99.90;;;;;;4991840;28;23075;-85
2023/09/09 04:53:52;;;;;;;27.43;20.70;;;15.00;99.90;;;;;;4995823;28;20989;-83
2023/09/09 04:56:19;;;;;;;28.77;21.63;;;15.10;99.90;;;;;;4997018;28;20712;-88
2023/09/09 04:58:44;;;;;;;35.00;22.67;;;15.10;99.90;;;;;;4998884;28;20477;-86
2023/09/09 05:01:10;;;;;;;38.30;23.43;;;15.10;99.90;;;;;;5004323;28;20499;-81
2023/09/09 05:03:35;;;;;;;33.30;23.63;;;15.10;99.90;;;;;;4998313;28;20210;-85
2023/09/09 05:06:01;;;;;;;39.77;26.90;;;15.20;99.90;;;;;;4999272;28;20277;-84
2023/09/09 05:08:27;;;;;;;29.47;23.10;;;15.20;99.90;;;;;;5001260;28;20195;-81
2023/09/09 05:10:52;;;;;;;33.37;24.60;;;15.30;99.90;;;;;;4997664;28;20469;-82
2023/09/09 05:13:18;;;;;;;30.23;21.80;;;15.30;99.90;;;;;;4996980;28;20237;-84
2023/09/09 05:15:44;;;;;;;29.97;20.10;;;15.40;99.90;;;;;;5009494;28;20288;-80
2023/09/09 05:18:09;;;;;;;29.60;20.93;;;15.60;99.90;;;;;;5006369;28;20182;-78
2023/09/09 05:20:35;;;;;;;22.33;17.00;;;16.30;99.90;;;;;;5005527;28;20186;-81
2023/09/09 05:23:00;;;;;;;19.80;15.90;;;17.20;99.90;;;;;;4998781;28;20186;-81
2023/09/09 05:25:26;;;;;;;22.93;15.80;;;18.00;99.90;;;;;;4994994;28;20566;-86
2023/09/09 05:27:52;;;;;;;19.43;14.10;;;18.90;99.90;;;;;;5000391;28;20197;-81
2023/09/09 05:30:17;;;;;;;17.83;12.97;;;19.90;99.90;;;;;;4997449;28;20198;-80
2023/09/09 05:32:43;;;;;;;15.03;11.90;;;20.70;99.90;;;;;;4999693;28;20453;-80
2023/09/09 05:35:12;;;;;;;16.80;12.60;;;21.30;99.90;;;;;;4999695;28;20825;-84
2023/09/09 05:37:38;;;;;;;18.97;12.53;;;22.60;99.90;;;;;;5001808;28;20623;-83
2023/09/09 05:40:04;;;;;;;16.17;11.97;;;23.90;99.90;;;;;;4995877;28;20446;-80
2023/09/09 05:42:30;;;;;;;15.10;13.13;;;25.00;99.90;;;;;;5005326;28;20449;-82
2023/09/09 05:44:55;;;;;;;14.63;12.77;;;25.80;99.90;;;;;;4997274;28;20497;-82
2023/09/09 05:47:21;;;;;;;16.40;13.90;;;26.50;99.90;;;;;;4996741;28;20279;-84
2023/09/09 05:49:46;;;;;;;14.73;13.17;;;27.20;99.90;;;;;;4996149;28;20296;-82
2023/09/09 05:52:12;;;;;;;15.53;13.40;;;27.80;99.90;;;;;;4995049;28;20190;-79
2023/09/09 05:54:38;;;;;;;14.07;12.37;;;28.60;99.90;;;;;;4994698;28;20213;-81
2023/09/09 05:57:04;;;;;;;20.37;13.30;;;29.00;99.90;;;;;;5000434;28;20819;-83
2023/09/09 05:59:30;;;;;;;17.40;13.07;;;29.60;99.90;;;;;;5005444;28;20190;-83
2023/09/09 06:01:56;;;;;;;21.20;16.53;;;30.60;99.90;;;;;;5005020;28;20449;-84
2023/09/09 06:04:22;;;;;;;15.73;14.00;;;31.60;99.90;;;;;;5000706;28;20291;-81
2023/09/09 06:06:48;;;;;;;14.70;12.67;;;31.90;98.70;;;;;;4991613;28;20488;-88
2023/09/09 06:09:13;;;;;;;20.50;14.53;;;32.00;96.30;;;;;;5009005;28;20457;-89
2023/09/09 06:11:39;;;;;;;16.40;12.33;;;31.80;95.40;;;;;;4994363;28;20472;-85
2023/09/09 06:14:04;;;;;;;14.83;13.17;;;31.60;95.90;;;;;;4999651;28;20197;-83
2023/09/09 06:16:31;;;;;;;19.00;14.30;;;30.90;94.30;;;;;;5003987;28;20655;-84
2023/09/09 06:18:56;;;;;;;16.60;12.63;;;29.90;96.60;;;;;;4995918;28;20193;-82
2023/09/09 06:21:22;;;;;;;13.33;12.00;;;29.50;97.50;;;;;;5010454;28;20436;-88
2023/09/09 06:23:47;;;;;;;19.40;14.10;;;29.40;97.80;;;;;;4991477;28;20248;-89
2023/09/09 06:26:13;;;;;;;16.70;13.67;;;31.10;97.40;;;;;;4992859;28;20232;-86
2023/09/09 06:28:38;;;;;;;14.43;12.37;;;31.00;95.80;;;;;;5006992;28;20183;-80
2023/09/09 06:31:04;;;;;;;14.77;13.23;;;33.20;94.50;;;;;;5004853;28;20524;-84
2023/09/09 06:33:29;;;;;;;13.80;11.97;;;33.80;90.10;;;;;;4997707;28;20209;-84
2023/09/09 06:35:55;;;;;;;15.40;13.90;;;34.10;88.40;;;;;;4995495;28;20245;-80
2023/09/09 06:38:21;;;;;;;15.67;14.00;;;34.00;86.80;;;;;;5018903;28;20198;-81
2023/09/09 06:40:48;;;;;;;16.50;13.57;;;33.90;88.20;;;;;;5003706;28;20195;-83
2023/09/09 06:43:19;;;;;;;12.60;11.40;;;33.90;85.70;;;;;;5001184;28;20456;-86
2023/09/09 06:45:45;;;;;;;19.37;15.83;;;33.40;82.90;;;;;;4999113;28;20465;-83
2023/09/09 06:48:10;;;;;;;14.43;13.13;;;33.00;84.30;;;;;;5000399;28;21035;-84
2023/09/09 06:50:36;;;;;;;16.53;14.73;;;33.20;85.10;;;;;;5002449;28;20459;-85
2023/09/09 06:53:01;;;;;;;14.07;12.63;;;33.30;86.00;;;;;;5005317;28;20191;-87
2023/09/09 06:55:28;;;;;;;15.70;11.67;;;34.00;82.80;;;;;;4999278;28;20215;-86
2023/09/09 06:57:54;;;;;;;13.80;12.50;;;33.70;82.10;;;;;;4996003;28;20356;-81
2023/09/09 07:00:19;;;;;;;12.53;11.33;;;33.70;83.40;;;;;;4999625;28;21140;-89
2023/09/09 07:02:45;;;;;;;13.83;12.40;;;33.50;80.50;;;;;;4997295;28;20204;-82
2023/09/09 07:05:16;;;;;;;16.47;12.90;;;34.00;80.10;;;;;;4996549;28;20224;-85
2023/09/09 07:07:42;;;;;;;17.97;14.37;;;35.40;80.20;;;;;;4999408;28;20771;-81
2023/09/09 07:10:08;;;;;;;14.80;11.80;;;35.60;76.30;;;;;;4994708;28;20440;-83
2023/09/09 07:12:34;;;;;;;15.33;13.83;;;35.00;73.90;;;;;;5002265;28;20196;-87
2023/09/09 07:15:00;;;;;;;16.80;14.27;;;34.90;75.10;;;;;;5003583;28;20471;-81
2023/09/09 07:17:25;;;;;;;16.97;13.77;;;35.20;75.90;;;;;;5021315;28;20192;-85
2023/09/09 07:19:51;;;;;;;14.80;13.17;;;36.90;70.30;;;;;;5015273;28;20200;-87
2023/09/09 07:22:16;;;;;;;25.10;14.97;;;36.40;68.30;;;;;;5013468;28;20200;-84
2023/09/09 07:24:42;;;;;;;15.30;13.97;;;36.20;69.60;;;;;;5014103;28;20626;-84
2023/09/09 07:27:08;;;;;;;16.87;13.83;;;;;;;;;;5012931;28;20184;-80
2023/09/09 07:29:33;;;;;;;19.03;14.20;;;37.20;65.30;;;;;;5009472;28;20223;-87
2023/09/09 07:31:59;;;;;;;15.23;13.67;;;36.90;64.50;;;;;;5010218;28;20455;-86
2023/09/09 07:34:25;;;;;;;15.63;14.23;;;36.00;66.20;;;;;;5011635;28;20631;-82
2023/09/09 07:36:51;;;;;;;19.60;14.40;;;35.60;68.20;;;;;;5011508;28;20216;-87
2023/09/09 07:39:16;;;;;;;19.23;14.23;;;35.60;68.50;;;;;;5011017;28;20477;-85
2023/09/09 07:41:42;;;;;;;16.93;15.23;;;35.10;70.10;;;;;;5014191;28;20188;-85
2023/09/09 07:44:07;;;;;;;16.50;14.10;;;36.30;71.90;;;;;;5010464;28;20199;-79
2023/09/09 07:46:33;;;;;;;16.03;14.50;;;35.70;70.30;;;;;;5015065;28;20220;-81
2023/09/09 07:48:58;;;;;;;16.93;12.30;;;35.70;68.20;;;;;;5013981;28;20198;-83
2023/09/09 07:51:24;;;;;;;18.13;15.40;;;35.90;65.70;;;;;;5013166;28;20270;-85
2023/09/09 07:53:52;;;;;;;20.67;14.87;;;35.70;69.80;;;;;;5013409;28;20201;-82
2023/09/09 07:56:17;;;;;;;15.30;13.70;;;37.40;69.20;;;;;;5005540;28;20194;-87
2023/09/09 07:58:45;;;;;;;17.97;13.90;;;37.70;62.00;;;;;;5019558;28;20444;-82
2023/09/09 08:01:11;;;;;;;15.97;14.37;;;36.90;63.30;;;;;;5012975;28;20597;-82
2023/09/09 08:03:37;;;;;;;16.53;14.90;;;36.50;66.30;;;;;;5009774;28;20464;-83
2023/09/09 08:06:06;;;;;;;16.60;14.83;;;35.80;65.30;;;;;;5002808;28;20468;-84
2023/09/09 08:08:32;;;;;;;15.80;14.33;;;36.40;65.20;;;;;;5008833;28;20236;-84
2023/09/09 08:10:58;;;;;;;15.07;13.77;;;35.80;65.70;;;;;;5005127;28;20452;-86
2023/09/09 08:13:25;;;;;;;15.93;14.33;;;35.60;67.10;;;;;;5009716;28;20444;-84
2023/09/09 08:15:50;;;;;;;17.00;15.27;;;35.90;65.80;;;;;;5004784;28;20210;-86
2023/09/09 08:18:16;;;;;;;17.60;15.77;;;37.00;66.60;;;;;;5007390;28;20520;-87
2023/09/09 08:20:41;;;;;;;16.57;15.00;;;36.80;63.90;;;;;;5008697;28;20186;-85
2023/09/09 08:23:08;;;;;;;17.07;15.37;;;36.80;64.20;;;;;;5011549;28;20184;-87
2023/09/09 08:25:33;;;;;;;17.27;15.87;;;37.60;63.30;;;;;;5018044;28;20225;-82
2023/09/09 08:28:03;;;;;;;18.30;16.43;;;37.60;61.50;;;;;;5013994;28;21217;-87
2023/09/09 08:30:30;;;;;;;17.53;15.73;;;38.80;61.40;;;;;;5010123;28;20977;-84
2023/09/09 08:32:56;;;;;;;17.03;15.70;;;;;;;;;;5010901;28;20558;-86
2023/09/09 08:35:23;;;;;;;17.97;16.30;;;38.10;58.00;;;;;;5010637;28;20457;-86
2023/09/09 08:37:49;;;;;;;20.20;18.27;;;38.70;61.00;;;;;;5010887;28;20451;-86
2023/09/09 08:40:14;;;;;;;18.67;17.07;;;40.40;58.40;;;;;;5009165;28;20448;-88
2023/09/09 08:42:49;;;;;;;19.20;17.60;;;41.10;55.20;;;;;;5011651;28;21101;-85
2023/09/09 08:45:41;;;;;;;19.63;17.97;;;40.80;55.90;;;;;;5009531;28;20217;-87
2023/09/09 08:48:08;;;;;;;19.20;17.70;;;40.40;55.90;;;;;;5000887;28;20564;-85
2023/09/09 08:50:39;;;;;;;18.93;17.53;;;40.40;56.00;;;;;;5014637;28;20462;-83
2023/09/09 08:53:06;;;;;;;18.57;16.87;;;39.70;56.60;;;;;;4997068;28;20503;-85
2023/09/09 08:55:32;;;;;;;18.50;16.83;;;37.50;58.30;;;;;;5002785;28;20468;-87
2023/09/09 08:57:58;;;;;;;22.07;19.70;;;38.30;58.40;;;;;;5005397;28;20535;-84
2023/09/09 09:00:33;;;;;;;19.93;18.00;;;38.30;59.10;;;;;;5003321;28;21195;-85
2023/09/09 09:03:02;;;;;;;20.57;18.73;;;38.50;58.60;;;;;;5002515;28;20193;-84
2023/09/09 09:05:33;;;;;;;21.57;19.33;;;39.60;56.70;;;;;;5001990;28;20491;-86
2023/09/09 09:08:01;;;;;;;19.10;17.60;;;39.70;55.90;;;;;;5001051;28;20476;-84
2023/09/09 09:10:27;;;;;;;19.00;17.60;;;40.50;54.80;;;;;;4998988;28;20552;-86
2023/09/09 09:12:53;;;;;;;19.53;18.00;;;41.10;55.10;;;;;;5003458;28;20933;-86
2023/09/09 09:15:21;;;;;;;19.27;17.77;;;40.10;54.40;;;;;;5017461;28;20305;-83
2023/09/09 09:17:46;;;;;;;17.97;16.47;;;40.20;54.60;;;;;;4999359;28;20455;-86
2023/09/09 09:20:28;;;;;;;19.10;17.40;;;39.60;52.60;;;;;;5019090;28;20500;-85
2023/09/09 09:23:01;;;;;;;20.73;19.00;;;39.10;55.40;;;;;;5013497;28;20190;-84
2023/09/09 09:25:27;;;;;;;19.57;18.00;;;39.50;54.40;;;;;;5001365;28;20473;-83
2023/09/09 09:28:01;;;;;;;20.23;18.30;;;39.20;55.50;;;;;;5001842;28;20816;-84
2023/09/09 09:30:29;;;;;;;21.10;19.50;;;37.90;56.40;;;;;;5005931;28;20453;-82
2023/09/09 09:32:55;;;;;;;30.63;20.40;;;38.80;55.60;;;;;;5005499;28;20433;-81
2023/09/09 09:35:32;;;;;;;19.70;18.07;;;39.20;55.50;;;;;;5006310;28;20488;-86
2023/09/09 09:38:03;;;;;;;20.20;18.23;;;39.50;53.90;;;;;;5005225;28;20441;-84
2023/09/09 09:40:30;;;;;;;27.67;19.77;;;39.10;53.00;;;;;;5006969;28;20506;-87
2023/09/09 09:42:56;;;;;;;18.50;16.80;;;39.10;53.50;;;;;;5020647;28;20437;-88
2023/09/09 09:45:27;;;;;;;19.27;17.27;;;37.60;54.70;;;;;;5006504;28;20491;-89
2023/09/09 09:47:53;;;;;;;18.23;16.70;;;35.90;59.00;;;;;;5006330;28;20949;-88
2023/09/09 09:50:30;;;;;;;17.20;15.70;;;35.40;58.50;;;;;;4998826;28;20441;-86
2023/09/09 09:53:01;;;;;;;17.23;15.73;;;35.40;62.60;;;;;;5007993;28;20429;-86
2023/09/09 09:55:29;;;;;;;16.43;15.07;;;37.20;59.10;;;;;;5007772;28;20515;-84
2023/09/09 09:57:59;;;;;;;18.40;16.63;;;38.20;57.30;;;;;;5015076;28;20972;-82
2023/09/09 10:00:26;;;;;;;17.60;16.20;;;38.90;55.30;;;;;;5019573;28;20453;-81
2023/09/09 10:02:54;;;;;;;19.77;17.77;;;39.90;54.60;;;;;;5016531;28;20436;-87
2023/09/09 10:05:22;;;;;;;19.57;17.97;;;40.00;53.30;;;;;;5002551;28;20477;-88
2023/09/09 10:07:53;;;;;;;19.47;17.60;;;40.00;53.30;;;;;;5001571;28;20445;-85
2023/09/09 10:10:25;;;;;;;20.13;18.53;;;39.00;52.80;;;;;;5004221;28;21498;-90
2023/09/09 10:13:01;;;;;;;18.90;17.23;;;37.90;54.50;;;;;;5005583;28;20559;-87
2023/09/09 10:15:30;;;;;;;18.73;17.23;;;35.80;57.20;;;;;;5006100;28;20492;-84
2023/09/09 10:17:59;;;;;;;17.10;15.60;;;33.00;63.50;;;;;;5020642;23;20492;-86
2023/09/09 10:20:25;;;;;;;15.27;13.80;;;32.90;64.20;;;;;;4963350;28;20447;-86
2023/09/09 10:22:53;;;;;;;13.23;11.93;;;32.20;66.80;;;;;;4948551;28;20853;-86
2023/09/09 10:25:19;;;;;;;13.67;12.30;;;31.60;72.00;;;;;;4945557;28;20219;-85
2023/09/09 10:27:46;;;;;;;12.83;11.63;;;31.20;74.80;;;;;;4947670;28;20454;-85
2023/09/09 10:30:14;;;;;;;14.10;11.60;;;30.50;75.90;;;;;;4946324;28;20960;-85
2023/09/09 10:32:41;;;;;;;11.63;10.27;;;29.90;84.50;;;;;;4948288;28;20461;-84
2023/09/09 10:35:07;;;;;;;11.73;9.93;;;29.50;84.40;;;;;;4942974;28;20464;-85
2023/09/09 10:37:34;;;;;;;11.40;9.87;;;29.20;86.30;;;;;;4941028;28;20511;-85
2023/09/09 10:40:01;;;;;;;22.43;10.63;;;29.20;85.00;;;;;;4945962;28;22593;-85
2023/09/09 10:42:28;;;;;;;11.90;10.10;;;29.30;89.00;;;;;;4947363;28;20564;-86
2023/09/09 10:44:54;;;;;;;11.70;9.23;;;29.40;88.00;;;;;;4947522;28;20479;-85
2023/09/09 10:47:19;;;;;;;10.00;8.83;;;29.70;86.90;;;;;;4948439;28;20503;-85
2023/09/09 10:49:45;;;;;;;12.53;8.70;;;29.70;85.00;;;;;;4948033;28;20670;-84
2023/09/09 10:52:31;;;;;;;10.13;9.10;;;29.70;85.10;;;;;;4949251;28;20670;-85
2023/09/09 10:55:13;;;;;;;11.70;8.80;;;29.70;85.70;;;;;;4960393;28;20190;-85
2023/09/09 10:57:38;;;;;;;12.70;9.20;;;29.80;84.50;;;;;;4961319;28;20810;-85
2023/09/09 11:00:05;;;;;;;11.93;9.90;;;29.70;85.50;;;;;;4944880;28;20586;-85
2023/09/09 11:02:42;;;;;;;9.87;8.87;;;29.70;86.00;;;;;;4959479;28;20575;-85
2023/09/09 11:05:12;;;;;;;13.03;9.23;;;29.40;88.00;;;;;;4944743;28;20477;-85
2023/09/09 11:07:42;;;;;;;10.20;9.17;;;29.60;89.00;;;;;;4957395;28;20500;-86
2023/09/09 11:10:11;;;;;;;10.67;9.00;;;29.80;86.20;;;;;;4941760;28;20441;-85
2023/09/09 11:12:37;;;;;;;10.90;7.73;;;30.10;86.60;;;;;;4947430;28;20488;-85
2023/09/09 11:15:11;;;;;;;10.00;8.53;;;29.90;82.90;;;;;;4941362;28;20451;-84
2023/09/09 11:17:40;;;;;;;9.03;8.13;;;29.60;86.20;;;;;;4959050;28;21331;-84
2023/09/09 11:20:10;;;;;;;9.83;8.83;;;29.20;89.90;;;;;;4958623;28;20447;-84
2023/09/09 11:22:37;;;;;;;14.37;8.73;;;29.40;87.50;;;;;;4951632;28;20468;-85
2023/09/09 11:25:03;;;;;;;12.60;9.17;;;29.50;90.30;;;;;;4961616;28;20471;-85
2023/09/09 11:27:30;;;;;;;10.73;8.90;;;;;;;;;;4945399;28;20491;-85
2023/09/09 11:29:55;;;;;;;11.13;8.80;;;29.70;88.70;;;;;;4947053;28;20436;-85
2023/09/09 11:32:25;;;;;;;10.73;9.57;;;29.80;88.60;;;;;;4962287;28;21064;-84
2023/09/09 11:34:53;;;;;;;13.63;9.43;;;29.80;90.60;;;;;;4962372;28;20185;-85
2023/09/09 11:37:18;;;;;;;13.87;8.80;;;29.70;91.40;;;;;;4942066;28;20478;-85
2023/09/09 11:39:44;;;;;;;11.13;9.63;;;29.40;90.60;;;;;;4959707;28;20475;-85
2023/09/09 11:42:10;;;;;;;12.40;9.17;;;29.40;91.70;;;;;;4942827;28;20725;-86
2023/09/09 11:44:43;;;;;;;11.63;8.80;;;29.50;91.30;;;;;;4953731;28;20477;-85
2023/09/09 11:47:09;;;;;;;14.40;9.53;;;29.50;91.50;;;;;;4955674;28;20531;-86
2023/09/09 11:49:38;;;;;;;14.03;8.97;;;29.30;92.10;;;;;;4944950;28;20439;-85
2023/09/09 11:52:04;;;;;;;9.83;8.80;;;29.20;93.40;;;;;;4945015;28;20459;-85
2023/09/09 11:54:30;;;;;;;14.73;9.40;;;29.20;93.90;;;;;;4940202;28;20658;-86
2023/09/09 11:57:09;;;;;;;14.43;9.23;;;29.10;93.20;;;;;;4940233;28;20449;-85
2023/09/09 11:59:46;;;;;;;12.80;9.00;;;29.30;93.80;;;;;;4956165;28;20247;-85
2023/09/09 12:02:23;;;;;;;16.60;9.70;;;29.40;92.90;;;;;;4959718;28;20477;-83
2023/09/09 12:05:07;;;;;;;10.07;9.07;;;29.20;94.10;;;;;;4944866;28;20463;-85
2023/09/09 12:07:35;;;;;;;10.60;8.60;;;29.30;93.50;;;;;;4945745;28;21577;-85
2023/09/09 12:10:04;;;;;;;11.70;7.93;;;29.10;94.00;;;;;;4963877;28;20458;-86
2023/09/09 12:12:30;;;;;;;9.30;7.60;;;29.10;93.90;;;;;;4948726;28;20466;-86
2023/09/09 12:14:58;;;;;;;11.33;8.17;;;29.30;93.10;;;;;;4962210;28;20466;-86
2023/09/09 12:17:23;;;;;;;9.60;8.63;;;29.50;93.00;;;;;;4961053;28;20275;-87
2023/09/09 12:20:02;;;;;;;8.80;7.87;;;29.60;92.60;;;;;;4946257;28;21106;-86
2023/09/09 12:22:33;;;;;;;12.20;8.93;;;29.60;92.50;;;;;;4960110;28;20215;-86
2023/09/09 12:24:59;;;;;;;10.10;8.07;;;29.60;92.50;;;;;;4945650;28;20888;-85
2023/09/09 12:27:45;;;;;;;13.20;8.27;;;29.90;90.80;;;;;;4953659;28;20457;-86
2023/09/09 12:30:37;;;;;;;10.43;8.40;;;30.20;91.00;;;;;;4949065;28;20500;-86